Terminal Aerodrome Forecast
Issued by NWS

Home | Current Version | Previous Version | Graphics & Text | Print | Product List | Glossary On
Versions: 1 2 3 4 5 6 7 8 9 10 11 12 13 14 15 16 17 18 19 20 21 22 23 24 25 26
003
FTUS43 KLOT 260526
TAFMDW
TAF
KMDW 260526Z 2606/2712 23006KT P6SM VCSH SCT070 BKN150
      TEMPO 2606/2607 4SM -SHRA BKN060 OVC100
     FM260700 21005KT P6SM FEW050 BKN150
     FM261600 24009KT P6SM SCT050 SCT250
     FM270000 14008KT P6SM SCT250
     FM270800 24005KT P6SM FEW250=

USA.gov is the U.S. government's official web portal to all federal, state and local government web resources and services.